INFORMACIÓN METAR y TAF

METAR FOR SAOC
ADDS - METARS form results

(1855 UTC 19 May 2022)
Data provider http://aviationweather.gov/metar/data/
 
METAR text: SAOC 191800Z 02018KT CAVOK 17/00 Q1015
Conditions at: SAOC (RIO CUARTO AIRPO, AR) observed 1800 UTC 19 May 2022
Temperature: 17.0°C (63°F)
Dewpoint: 0.0°C (32°F) [RH = 32%]
Pressure (altimeter): 29.97 inches Hg (1015.0 mb)
Winds: from the NNE (20 degrees) at 21 MPH (18 knots; 9.3 m/s)
Visibility: 6 or more miles (10+ km)
Ceiling: ceiling and visibility are OK
Clouds: unknown
Weather: no significant weather observed at this time

 MAPA DE AEROPUERTO

 INFORMACIÓN DE PISTA
Pista 18 Longitud 6808 ft Ancho 131 ft
Elevación 0 ft Umbral desplazado 0 ft Rumbo de pista 0
Pista 36 Longitud 6808 ft Ancho 131 ft
Elevación 0 ft Umbral desplazado 0 ft Rumbo de pista 0
Pista 5 Longitud 7431 ft Ancho 148 ft
Elevación 1381 ft Umbral desplazado 0 ft Rumbo de pista 178
Pista 23 Longitud 7431 ft Ancho 148 ft
Elevación 1381 ft Umbral desplazado 0 ft Rumbo de pista 358

 FRECUENCIAS DEL AEROPUERTO
Tipo APP Nombre APP/TWR Frecuencia 118.75 MHZ

 RADIO AYUDAS DEL AEROPUERTO
Tipo VOR Nombre Rio Cuarto Frecuencia 114200 KHZ



©2022 LAPA Virtual - Todos los derechos reservados.

VAM [MOD Version] - Powered & Development by AccessPoint LLC